Bardstown, KY

6:51 AM EDT on August 27, 2014 (GMT -0400)
Oak Knoll Subdivision | Change Station
CLOSE
Current Station
Personal Weather Station
Location: Bardstown, KY
Elevation: 715 ft
Nearby Weather Stations

Elev 715 ft 37.78 °N, 85.41 °W | Updated 5 minutes ago

Clear
Clear
66.9 °F
Feels Like 66.9 °F
N
0.0
Wind Variable Wind from ESE

Today
High -- | Low -- °F
--% Chance of Precip.
Yesterday
High -- | Low -- °F
Precip. -- in
7:07 AM 8:18 PM
Waxing Crescent, 3% visible
Pressure 30.09 in
Visibility 6.0 miles
Clouds Clear
Dew Point 65 °F
Humidity 95%
Rainfall 0.00 in
Snow Depth Not available.
UV 0 out of 12
Pollen 10.70 out of 12
Ozone Good
PM2.5 Moderate
Flu Activity Not available.
SPECI KFTK 271043Z AUTO 00000KT 6SM R18/5000FT BR CLR 21/21 A3009 RMK AO2

More Conditions Fewer Conditions

Pressure 30.09 in
Visibility 6.0 miles
Clouds Clear
Dew Point 65 °F
Humidity 95%
Rainfall 0.00 in
Snow Depth Not available.
UV 0 out of 12
Pollen 10.70 out of 12
Ozone Good
PM2.5 Moderate
Flu Activity Not available.
SPECI KFTK 271043Z AUTO 00000KT 6SM R18/5000FT BR CLR 21/21 A3009 RMK AO2

More Conditions Fewer Conditions

10-Day Weather Forecast

Almanac

Astronomy

Aug. 27, 2014 Rise Set
Actual Time 7:07 AM EDT 8:18 PM EDT
Civil Twilight 6:40 AM EDT 8:45 PM EDT
Nautical Twilight 6:08 AM EDT 9:17 PM EDT
Astronomical Twilight 5:34 AM EDT 9:51 PM EDT
Moon 9:00 AM EDT 9:13 PM EDT
Length of Visible Light 14h 05m
Length of Day
13h 10m
Tomorrow will be 2m 17s shorter.
Waxing Crescent, 3% of the Moon is Illuminated
Today
Waxing Crescent
Sep 2
First Quarter
Sep 8
Full
Sep 15
Last Quarter
Sep 24
New

Today's Extremes

State Highs State Lows

Community

WunderPhotos

Upload Photos

1,747,666 photos uploaded!

Nearby

Air Quality

  Air Quality AQ Index Pollutant
Yesterday Moderate
OZONE
Yesterday Good
PM10
Current Moderate
PM2.5
Current Good
OZONE
Wednesday Moderate
PM2.5
Wednesday Good
OZONE
Thursday Moderate
PM2.5
Thursday Good
OZONE
Friday Moderate
PM2.5
Friday Moderate
OZONE

Snow Depth

Station Depth Elevation
No new snow has been reported.

Earthquake Activity

City Distance Mag. Time & Date
No recent earthquake activity has been reported nearby.
Minimum magnitude displayed is 2.5.

Coastal Water Temperatures

Place Temperature
No Stations Reporting

Nearby Weather Stations